sensor_id;sensor_type;location;lat;lon;timestamp;P1;durP1;ratioP1;P2;durP2;ratioP2
817;SDS011;391;51.052;6.954;2023-02-11T00:01:26;25.13;;;19.13;;
817;SDS011;391;51.052;6.954;2023-02-11T00:03:31;21.47;;;16.73;;
817;SDS011;391;51.052;6.954;2023-02-11T00:05:35;22.43;;;17.43;;
817;SDS011;391;51.052;6.954;2023-02-11T00:07:38;18.87;;;15.40;;
817;SDS011;391;51.052;6.954;2023-02-11T00:09:41;19.77;;;16.03;;
817;SDS011;391;51.052;6.954;2023-02-11T00:11:45;25.57;;;17.93;;
817;SDS011;391;51.052;6.954;2023-02-11T00:13:49;19.37;;;16.70;;
817;SDS011;391;51.052;6.954;2023-02-11T00:15:53;25.17;;;17.27;;
817;SDS011;391;51.052;6.954;2023-02-11T00:17:57;21.70;;;17.30;;
817;SDS011;391;51.052;6.954;2023-02-11T00:20:00;20.80;;;17.00;;
817;SDS011;391;51.052;6.954;2023-02-11T00:22:03;24.57;;;15.00;;
817;SDS011;391;51.052;6.954;2023-02-11T00:24:07;19.90;;;16.83;;
817;SDS011;391;51.052;6.954;2023-02-11T00:26:10;19.40;;;15.00;;
817;SDS011;391;51.052;6.954;2023-02-11T00:28:16;20.23;;;17.20;;
817;SDS011;391;51.052;6.954;2023-02-11T00:30:21;21.83;;;16.70;;
817;SDS011;391;51.052;6.954;2023-02-11T00:32:24;26.63;;;18.20;;
817;SDS011;391;51.052;6.954;2023-02-11T00:34:28;20.30;;;16.30;;
817;SDS011;391;51.052;6.954;2023-02-11T00:36:31;21.13;;;16.50;;
817;SDS011;391;51.052;6.954;2023-02-11T00:38:35;29.23;;;18.20;;
817;SDS011;391;51.052;6.954;2023-02-11T00:40:38;18.47;;;15.97;;
817;SDS011;391;51.052;6.954;2023-02-11T00:42:41;18.60;;;16.23;;
817;SDS011;391;51.052;6.954;2023-02-11T00:44:45;19.97;;;16.80;;
817;SDS011;391;51.052;6.954;2023-02-11T00:46:52;22.90;;;16.70;;
817;SDS011;391;51.052;6.954;2023-02-11T00:48:55;16.20;;;14.50;;
817;SDS011;391;51.052;6.954;2023-02-11T00:50:59;15.87;;;14.00;;
817;SDS011;391;51.052;6.954;2023-02-11T00:53:02;20.67;;;17.37;;
817;SDS011;391;51.052;6.954;2023-02-11T00:55:06;21.10;;;16.00;;
817;SDS011;391;51.052;6.954;2023-02-11T00:57:10;23.57;;;18.40;;
817;SDS011;391;51.052;6.954;2023-02-11T00:59:13;19.17;;;15.80;;
817;SDS011;391;51.052;6.954;2023-02-11T01:01:18;17.20;;;13.90;;
817;SDS011;391;51.052;6.954;2023-02-11T01:03:22;18.57;;;14.93;;
817;SDS011;391;51.052;6.954;2023-02-11T01:05:26;19.60;;;16.53;;
817;SDS011;391;51.052;6.954;2023-02-11T01:07:30;16.40;;;14.67;;
817;SDS011;391;51.052;6.954;2023-02-11T01:09:33;19.90;;;15.23;;
817;SDS011;391;51.052;6.954;2023-02-11T01:11:39;22.17;;;16.80;;
817;SDS011;391;51.052;6.954;2023-02-11T01:13:43;18.80;;;14.40;;
817;SDS011;391;51.052;6.954;2023-02-11T01:15:47;18.87;;;14.90;;
817;SDS011;391;51.052;6.954;2023-02-11T01:17:51;18.60;;;15.00;;
817;SDS011;391;51.052;6.954;2023-02-11T01:19:56;18.97;;;15.73;;
817;SDS011;391;51.052;6.954;2023-02-11T01:22:00;17.17;;;14.07;;
817;SDS011;391;51.052;6.954;2023-02-11T01:24:03;20.10;;;15.40;;
817;SDS011;391;51.052;6.954;2023-02-11T01:26:07;17.00;;;13.23;;
817;SDS011;391;51.052;6.954;2023-02-11T01:28:12;18.30;;;16.37;;
817;SDS011;391;51.052;6.954;2023-02-11T01:30:18;18.00;;;15.67;;
817;SDS011;391;51.052;6.954;2023-02-11T01:32:22;22.03;;;16.87;;
817;SDS011;391;51.052;6.954;2023-02-11T01:34:27;18.40;;;15.30;;
817;SDS011;391;51.052;6.954;2023-02-11T01:36:32;18.67;;;15.40;;
817;SDS011;391;51.052;6.954;2023-02-11T01:38:36;18.77;;;14.73;;
817;SDS011;391;51.052;6.954;2023-02-11T01:40:45;23.30;;;16.90;;
817;SDS011;391;51.052;6.954;2023-02-11T01:42:50;20.03;;;15.17;;
817;SDS011;391;51.052;6.954;2023-02-11T01:44:53;19.93;;;14.77;;
817;SDS011;391;51.052;6.954;2023-02-11T01:46:59;18.17;;;16.17;;
817;SDS011;391;51.052;6.954;2023-02-11T01:49:06;19.50;;;16.57;;
817;SDS011;391;51.052;6.954;2023-02-11T01:51:13;17.73;;;14.70;;
817;SDS011;391;51.052;6.954;2023-02-11T01:53:21;22.03;;;16.50;;
817;SDS011;391;51.052;6.954;2023-02-11T01:55:42;19.60;;;16.17;;
817;SDS011;391;51.052;6.954;2023-02-11T01:58:04;24.60;;;17.40;;
817;SDS011;391;51.052;6.954;2023-02-11T02:00:09;20.87;;;16.57;;
817;SDS011;391;51.052;6.954;2023-02-11T02:02:18;21.33;;;16.50;;
817;SDS011;391;51.052;6.954;2023-02-11T02:04:26;20.33;;;16.30;;
817;SDS011;391;51.052;6.954;2023-02-11T02:06:36;19.60;;;16.03;;
817;SDS011;391;51.052;6.954;2023-02-11T02:08:46;18.60;;;14.50;;
817;SDS011;391;51.052;6.954;2023-02-11T02:10:55;21.27;;;16.37;;
817;SDS011;391;51.052;6.954;2023-02-11T02:13:01;27.63;;;18.70;;
817;SDS011;391;51.052;6.954;2023-02-11T02:15:10;19.90;;;16.50;;
817;SDS011;391;51.052;6.954;2023-02-11T02:17:24;23.67;;;18.27;;
817;SDS011;391;51.052;6.954;2023-02-11T02:19:46;22.23;;;17.10;;
817;SDS011;391;51.052;6.954;2023-02-11T02:22:10;23.40;;;17.47;;
817;SDS011;391;51.052;6.954;2023-02-11T02:24:50;19.13;;;16.67;;
817;SDS011;391;51.052;6.954;2023-02-11T02:35:26;21.13;;;17.10;;
817;SDS011;391;51.052;6.954;2023-02-11T02:37:35;22.93;;;18.10;;
817;SDS011;391;51.052;6.954;2023-02-11T02:39:42;25.43;;;19.67;;
817;SDS011;391;51.052;6.954;2023-02-11T02:41:50;20.73;;;18.20;;
817;SDS011;391;51.052;6.954;2023-02-11T02:43:55;24.80;;;18.90;;
817;SDS011;391;51.052;6.954;2023-02-11T02:46:08;22.37;;;17.70;;
817;SDS011;391;51.052;6.954;2023-02-11T02:48:24;25.47;;;17.70;;
817;SDS011;391;51.052;6.954;2023-02-11T02:50:32;19.90;;;17.30;;
817;SDS011;391;51.052;6.954;2023-02-11T02:52:40;21.37;;;17.90;;
817;SDS011;391;51.052;6.954;2023-02-11T02:55:09;25.10;;;18.00;;
817;SDS011;391;51.052;6.954;2023-02-11T02:57:25;24.47;;;18.97;;
817;SDS011;391;51.052;6.954;2023-02-11T02:59:37;23.77;;;17.10;;
817;SDS011;391;51.052;6.954;2023-02-11T03:01:51;22.53;;;17.17;;
817;SDS011;391;51.052;6.954;2023-02-11T03:04:09;22.73;;;17.60;;
817;SDS011;391;51.052;6.954;2023-02-11T03:06:22;22.70;;;17.53;;
817;SDS011;391;51.052;6.954;2023-02-11T03:08:33;22.63;;;16.30;;
817;SDS011;391;51.052;6.954;2023-02-11T03:10:42;21.53;;;16.97;;
817;SDS011;391;51.052;6.954;2023-02-11T03:12:49;23.63;;;18.93;;
817;SDS011;391;51.052;6.954;2023-02-11T03:14:55;21.13;;;16.07;;
817;SDS011;391;51.052;6.954;2023-02-11T03:17:01;24.67;;;17.83;;
817;SDS011;391;51.052;6.954;2023-02-11T03:19:09;22.13;;;16.63;;
817;SDS011;391;51.052;6.954;2023-02-11T03:21:15;25.03;;;19.87;;
817;SDS011;391;51.052;6.954;2023-02-11T03:23:22;24.97;;;18.30;;
817;SDS011;391;51.052;6.954;2023-02-11T03:25:31;24.03;;;18.40;;
817;SDS011;391;51.052;6.954;2023-02-11T03:27:40;21.63;;;16.97;;
817;SDS011;391;51.052;6.954;2023-02-11T03:29:49;23.37;;;17.60;;
817;SDS011;391;51.052;6.954;2023-02-11T03:31:59;27.60;;;20.37;;
817;SDS011;391;51.052;6.954;2023-02-11T03:34:06;23.90;;;17.70;;
817;SDS011;391;51.052;6.954;2023-02-11T03:36:16;24.77;;;18.00;;
817;SDS011;391;51.052;6.954;2023-02-11T03:38:26;25.83;;;19.97;;
817;SDS011;391;51.052;6.954;2023-02-11T03:40:34;22.07;;;18.47;;
817;SDS011;391;51.052;6.954;2023-02-11T03:42:40;21.70;;;18.13;;
817;SDS011;391;51.052;6.954;2023-02-11T03:44:47;27.10;;;19.50;;
817;SDS011;391;51.052;6.954;2023-02-11T03:46:53;25.50;;;19.80;;
817;SDS011;391;51.052;6.954;2023-02-11T03:48:59;24.10;;;17.67;;
817;SDS011;391;51.052;6.954;2023-02-11T03:51:05;29.87;;;20.47;;
817;SDS011;391;51.052;6.954;2023-02-11T03:53:11;31.87;;;16.93;;
817;SDS011;391;51.052;6.954;2023-02-11T03:55:18;24.23;;;17.87;;
817;SDS011;391;51.052;6.954;2023-02-11T03:57:26;22.10;;;18.30;;
817;SDS011;391;51.052;6.954;2023-02-11T03:59:30;22.57;;;16.60;;
817;SDS011;391;51.052;6.954;2023-02-11T04:01:33;20.57;;;16.80;;
817;SDS011;391;51.052;6.954;2023-02-11T04:03:37;25.20;;;18.27;;
817;SDS011;391;51.052;6.954;2023-02-11T04:05:40;22.17;;;18.50;;
817;SDS011;391;51.052;6.954;2023-02-11T04:07:44;29.23;;;18.73;;
817;SDS011;391;51.052;6.954;2023-02-11T04:09:47;23.37;;;17.20;;
817;SDS011;391;51.052;6.954;2023-02-11T04:11:52;27.00;;;19.13;;
817;SDS011;391;51.052;6.954;2023-02-11T04:13:55;23.20;;;19.00;;
817;SDS011;391;51.052;6.954;2023-02-11T04:15:58;29.13;;;19.40;;
817;SDS011;391;51.052;6.954;2023-02-11T04:18:02;22.77;;;18.67;;
817;SDS011;391;51.052;6.954;2023-02-11T04:20:06;29.27;;;20.57;;
817;SDS011;391;51.052;6.954;2023-02-11T04:22:10;23.97;;;18.00;;
817;SDS011;391;51.052;6.954;2023-02-11T04:24:14;26.30;;;19.50;;
817;SDS011;391;51.052;6.954;2023-02-11T04:26:17;25.63;;;19.90;;
817;SDS011;391;51.052;6.954;2023-02-11T04:28:22;25.97;;;18.70;;
817;SDS011;391;51.052;6.954;2023-02-11T04:30:25;26.20;;;18.90;;
817;SDS011;391;51.052;6.954;2023-02-11T04:32:30;26.47;;;18.80;;
817;SDS011;391;51.052;6.954;2023-02-11T04:34:33;22.20;;;18.30;;
817;SDS011;391;51.052;6.954;2023-02-11T04:36:36;23.87;;;18.57;;
817;SDS011;391;51.052;6.954;2023-02-11T04:38:40;23.67;;;17.97;;
817;SDS011;391;51.052;6.954;2023-02-11T04:40:43;25.83;;;20.03;;
817;SDS011;391;51.052;6.954;2023-02-11T04:42:47;23.13;;;17.13;;
817;SDS011;391;51.052;6.954;2023-02-11T04:44:51;25.10;;;18.53;;
817;SDS011;391;51.052;6.954;2023-02-11T04:46:55;26.73;;;19.00;;
817;SDS011;391;51.052;6.954;2023-02-11T04:48:58;23.30;;;17.90;;
817;SDS011;391;51.052;6.954;2023-02-11T04:51:02;19.03;;;16.67;;
817;SDS011;391;51.052;6.954;2023-02-11T04:53:05;27.07;;;19.40;;
817;SDS011;391;51.052;6.954;2023-02-11T04:55:09;22.03;;;18.10;;
817;SDS011;391;51.052;6.954;2023-02-11T04:57:13;20.20;;;17.40;;
817;SDS011;391;51.052;6.954;2023-02-11T04:59:17;25.07;;;17.07;;
817;SDS011;391;51.052;6.954;2023-02-11T05:01:22;23.50;;;15.47;;
817;SDS011;391;51.052;6.954;2023-02-11T05:03:25;24.60;;;16.23;;
817;SDS011;391;51.052;6.954;2023-02-11T05:05:28;18.03;;;15.17;;
817;SDS011;391;51.052;6.954;2023-02-11T05:07:32;21.23;;;15.10;;
817;SDS011;391;51.052;6.954;2023-02-11T05:09:35;21.37;;;15.43;;
817;SDS011;391;51.052;6.954;2023-02-11T05:11:39;24.77;;;16.57;;
817;SDS011;391;51.052;6.954;2023-02-11T05:13:42;19.57;;;16.53;;
817;SDS011;391;51.052;6.954;2023-02-11T05:15:46;23.63;;;16.90;;
817;SDS011;391;51.052;6.954;2023-02-11T05:17:51;23.77;;;15.90;;
817;SDS011;391;51.052;6.954;2023-02-11T05:19:55;19.30;;;16.20;;
817;SDS011;391;51.052;6.954;2023-02-11T05:21:58;24.27;;;17.43;;
817;SDS011;391;51.052;6.954;2023-02-11T05:24:04;22.80;;;16.77;;
817;SDS011;391;51.052;6.954;2023-02-11T05:26:09;25.07;;;16.50;;
817;SDS011;391;51.052;6.954;2023-02-11T05:28:13;18.63;;;14.80;;
817;SDS011;391;51.052;6.954;2023-02-11T05:30:16;22.07;;;17.67;;
817;SDS011;391;51.052;6.954;2023-02-11T05:32:20;17.03;;;14.80;;
817;SDS011;391;51.052;6.954;2023-02-11T05:34:24;25.33;;;16.90;;
817;SDS011;391;51.052;6.954;2023-02-11T05:36:28;20.80;;;16.63;;
817;SDS011;391;51.052;6.954;2023-02-11T05:38:34;22.73;;;17.33;;
817;SDS011;391;51.052;6.954;2023-02-11T05:40:38;22.70;;;17.60;;
817;SDS011;391;51.052;6.954;2023-02-11T05:42:42;23.03;;;16.40;;
817;SDS011;391;51.052;6.954;2023-02-11T05:44:46;25.30;;;15.70;;
817;SDS011;391;51.052;6.954;2023-02-11T05:46:51;24.80;;;17.50;;
817;SDS011;391;51.052;6.954;2023-02-11T05:48:55;18.93;;;16.80;;
817;SDS011;391;51.052;6.954;2023-02-11T05:50:59;29.33;;;17.07;;
817;SDS011;391;51.052;6.954;2023-02-11T05:53:03;27.10;;;19.23;;
817;SDS011;391;51.052;6.954;2023-02-11T05:55:07;27.40;;;17.23;;
817;SDS011;391;51.052;6.954;2023-02-11T05:57:11;30.10;;;18.30;;
817;SDS011;391;51.052;6.954;2023-02-11T05:59:14;26.23;;;17.70;;
817;SDS011;391;51.052;6.954;2023-02-11T06:01:18;24.03;;;17.80;;
817;SDS011;391;51.052;6.954;2023-02-11T06:03:21;25.03;;;16.60;;
817;SDS011;391;51.052;6.954;2023-02-11T06:05:25;29.20;;;18.00;;
817;SDS011;391;51.052;6.954;2023-02-11T06:07:30;25.93;;;17.80;;
817;SDS011;391;51.052;6.954;2023-02-11T06:09:33;25.60;;;18.00;;
817;SDS011;391;51.052;6.954;2023-02-11T06:11:36;25.40;;;17.77;;
817;SDS011;391;51.052;6.954;2023-02-11T06:13:40;27.77;;;19.37;;
817;SDS011;391;51.052;6.954;2023-02-11T06:15:43;26.47;;;19.17;;
817;SDS011;391;51.052;6.954;2023-02-11T06:17:47;25.63;;;18.87;;
817;SDS011;391;51.052;6.954;2023-02-11T06:19:50;29.97;;;17.37;;
817;SDS011;391;51.052;6.954;2023-02-11T06:21:54;27.23;;;17.33;;
817;SDS011;391;51.052;6.954;2023-02-11T06:23:59;23.73;;;18.17;;
817;SDS011;391;51.052;6.954;2023-02-11T06:26:03;25.53;;;17.17;;
817;SDS011;391;51.052;6.954;2023-02-11T06:28:07;23.90;;;18.17;;
817;SDS011;391;51.052;6.954;2023-02-11T06:30:11;27.73;;;19.50;;
817;SDS011;391;51.052;6.954;2023-02-11T06:32:16;26.07;;;18.23;;
817;SDS011;391;51.052;6.954;2023-02-11T06:34:39;26.23;;;19.23;;
817;SDS011;391;51.052;6.954;2023-02-11T06:36:43;25.33;;;19.67;;
817;SDS011;391;51.052;6.954;2023-02-11T06:38:46;25.40;;;18.67;;
817;SDS011;391;51.052;6.954;2023-02-11T06:40:52;27.47;;;18.77;;
817;SDS011;391;51.052;6.954;2023-02-11T06:42:55;25.87;;;19.07;;
817;SDS011;391;51.052;6.954;2023-02-11T06:44:58;29.50;;;18.53;;
817;SDS011;391;51.052;6.954;2023-02-11T06:47:02;27.33;;;18.87;;
817;SDS011;391;51.052;6.954;2023-02-11T06:49:06;23.80;;;19.10;;
817;SDS011;391;51.052;6.954;2023-02-11T06:51:09;26.73;;;19.67;;
817;SDS011;391;51.052;6.954;2023-02-11T06:53:14;31.33;;;21.90;;
817;SDS011;391;51.052;6.954;2023-02-11T06:55:18;26.10;;;20.50;;
817;SDS011;391;51.052;6.954;2023-02-11T06:57:22;36.30;;;23.30;;
817;SDS011;391;51.052;6.954;2023-02-11T06:59:26;30.73;;;20.53;;
817;SDS011;391;51.052;6.954;2023-02-11T07:01:29;29.33;;;20.10;;
817;SDS011;391;51.052;6.954;2023-02-11T07:03:33;33.63;;;20.80;;
817;SDS011;391;51.052;6.954;2023-02-11T07:05:40;28.70;;;20.80;;
817;SDS011;391;51.052;6.954;2023-02-11T07:07:44;31.80;;;21.40;;
817;SDS011;391;51.052;6.954;2023-02-11T07:09:48;30.70;;;21.43;;
817;SDS011;391;51.052;6.954;2023-02-11T07:11:51;29.30;;;21.30;;
817;SDS011;391;51.052;6.954;2023-02-11T07:13:59;31.60;;;20.53;;
817;SDS011;391;51.052;6.954;2023-02-11T07:16:04;29.70;;;21.30;;
817;SDS011;391;51.052;6.954;2023-02-11T07:18:08;28.63;;;21.87;;
817;SDS011;391;51.052;6.954;2023-02-11T07:20:15;33.43;;;20.90;;
817;SDS011;391;51.052;6.954;2023-02-11T07:22:19;32.73;;;21.27;;
817;SDS011;391;51.052;6.954;2023-02-11T07:24:22;31.27;;;22.20;;
817;SDS011;391;51.052;6.954;2023-02-11T07:26:26;28.63;;;22.23;;
817;SDS011;391;51.052;6.954;2023-02-11T07:28:30;34.27;;;21.70;;
817;SDS011;391;51.052;6.954;2023-02-11T07:30:35;31.23;;;22.10;;
817;SDS011;391;51.052;6.954;2023-02-11T07:32:38;30.47;;;24.40;;
817;SDS011;391;51.052;6.954;2023-02-11T07:34:41;30.23;;;20.00;;
817;SDS011;391;51.052;6.954;2023-02-11T07:36:45;25.83;;;19.90;;
817;SDS011;391;51.052;6.954;2023-02-11T07:38:49;27.00;;;20.30;;
817;SDS011;391;51.052;6.954;2023-02-11T07:40:53;30.20;;;22.30;;
817;SDS011;391;51.052;6.954;2023-02-11T07:42:56;31.53;;;22.03;;
817;SDS011;391;51.052;6.954;2023-02-11T07:45:00;27.73;;;21.50;;
817;SDS011;391;51.052;6.954;2023-02-11T07:47:05;28.10;;;21.37;;
817;SDS011;391;51.052;6.954;2023-02-11T07:49:08;27.87;;;20.60;;
817;SDS011;391;51.052;6.954;2023-02-11T07:51:13;35.20;;;23.47;;
817;SDS011;391;51.052;6.954;2023-02-11T07:53:17;28.07;;;21.50;;
817;SDS011;391;51.052;6.954;2023-02-11T07:55:21;32.63;;;23.37;;
817;SDS011;391;51.052;6.954;2023-02-11T07:57:24;36.13;;;24.03;;
817;SDS011;391;51.052;6.954;2023-02-11T07:59:27;33.70;;;22.23;;
817;SDS011;391;51.052;6.954;2023-02-11T08:01:31;40.77;;;24.30;;
817;SDS011;391;51.052;6.954;2023-02-11T08:03:36;33.70;;;20.93;;
817;SDS011;391;51.052;6.954;2023-02-11T08:05:40;31.60;;;20.37;;
817;SDS011;391;51.052;6.954;2023-02-11T08:07:44;35.47;;;23.20;;
817;SDS011;391;51.052;6.954;2023-02-11T08:09:48;29.60;;;21.50;;
817;SDS011;391;51.052;6.954;2023-02-11T08:11:51;33.27;;;21.17;;
817;SDS011;391;51.052;6.954;2023-02-11T08:13:55;33.27;;;22.27;;
817;SDS011;391;51.052;6.954;2023-02-11T08:15:59;34.70;;;22.43;;
817;SDS011;391;51.052;6.954;2023-02-11T08:18:02;38.03;;;21.77;;
817;SDS011;391;51.052;6.954;2023-02-11T08:20:07;45.13;;;25.27;;
817;SDS011;391;51.052;6.954;2023-02-11T08:22:11;34.37;;;23.50;;
817;SDS011;391;51.052;6.954;2023-02-11T08:24:15;38.93;;;25.40;;
817;SDS011;391;51.052;6.954;2023-02-11T08:26:19;36.00;;;23.30;;
817;SDS011;391;51.052;6.954;2023-02-11T08:28:24;40.40;;;25.13;;
817;SDS011;391;51.052;6.954;2023-02-11T08:30:28;33.10;;;22.00;;
817;SDS011;391;51.052;6.954;2023-02-11T08:32:33;40.23;;;25.03;;
817;SDS011;391;51.052;6.954;2023-02-11T08:34:36;32.53;;;22.80;;
817;SDS011;391;51.052;6.954;2023-02-11T08:36:41;33.40;;;23.97;;
817;SDS011;391;51.052;6.954;2023-02-11T08:38:45;43.60;;;24.30;;
817;SDS011;391;51.052;6.954;2023-02-11T08:40:49;37.77;;;24.10;;
817;SDS011;391;51.052;6.954;2023-02-11T08:42:53;36.97;;;23.03;;
817;SDS011;391;51.052;6.954;2023-02-11T08:44:56;34.87;;;26.10;;
817;SDS011;391;51.052;6.954;2023-02-11T08:46:59;38.00;;;23.40;;
817;SDS011;391;51.052;6.954;2023-02-11T08:49:03;41.93;;;23.13;;
817;SDS011;391;51.052;6.954;2023-02-11T08:51:07;41.80;;;24.70;;
817;SDS011;391;51.052;6.954;2023-02-11T08:53:13;35.67;;;24.03;;
817;SDS011;391;51.052;6.954;2023-02-11T08:55:16;43.10;;;25.90;;
817;SDS011;391;51.052;6.954;2023-02-11T08:57:20;38.07;;;24.50;;
817;SDS011;391;51.052;6.954;2023-02-11T08:59:23;37.90;;;23.37;;
817;SDS011;391;51.052;6.954;2023-02-11T09:01:27;31.70;;;21.50;;
817;SDS011;391;51.052;6.954;2023-02-11T09:03:32;38.80;;;22.13;;
817;SDS011;391;51.052;6.954;2023-02-11T09:05:39;42.23;;;23.53;;
817;SDS011;391;51.052;6.954;2023-02-11T09:07:42;30.37;;;23.03;;
817;SDS011;391;51.052;6.954;2023-02-11T09:09:47;28.60;;;16.83;;
817;SDS011;391;51.052;6.954;2023-02-11T09:11:51;37.17;;;22.10;;
817;SDS011;391;51.052;6.954;2023-02-11T09:13:58;34.77;;;22.27;;
817;SDS011;391;51.052;6.954;2023-02-11T09:16:03;34.97;;;22.10;;
817;SDS011;391;51.052;6.954;2023-02-11T09:18:07;34.67;;;20.90;;
817;SDS011;391;51.052;6.954;2023-02-11T09:20:10;34.80;;;21.67;;
817;SDS011;391;51.052;6.954;2023-02-11T09:22:13;33.27;;;22.30;;
817;SDS011;391;51.052;6.954;2023-02-11T09:24:17;33.87;;;21.70;;
817;SDS011;391;51.052;6.954;2023-02-11T09:26:23;32.80;;;21.63;;
817;SDS011;391;51.052;6.954;2023-02-11T09:28:28;34.43;;;21.40;;
817;SDS011;391;51.052;6.954;2023-02-11T09:30:32;34.87;;;21.33;;
817;SDS011;391;51.052;6.954;2023-02-11T09:32:35;36.23;;;23.73;;
817;SDS011;391;51.052;6.954;2023-02-11T09:34:39;30.67;;;22.47;;
817;SDS011;391;51.052;6.954;2023-02-11T09:36:43;31.60;;;19.57;;
817;SDS011;391;51.052;6.954;2023-02-11T09:38:47;36.97;;;22.27;;
817;SDS011;391;51.052;6.954;2023-02-11T09:40:50;31.37;;;21.57;;
817;SDS011;391;51.052;6.954;2023-02-11T09:42:58;34.33;;;20.97;;
817;SDS011;391;51.052;6.954;2023-02-11T09:45:09;32.00;;;22.03;;
817;SDS011;391;51.052;6.954;2023-02-11T09:47:21;34.67;;;20.30;;
817;SDS011;391;51.052;6.954;2023-02-11T09:49:31;39.13;;;22.57;;
817;SDS011;391;51.052;6.954;2023-02-11T09:51:38;36.73;;;22.73;;
817;SDS011;391;51.052;6.954;2023-02-11T09:53:47;36.20;;;21.53;;
817;SDS011;391;51.052;6.954;2023-02-11T09:55:55;29.70;;;19.77;;
817;SDS011;391;51.052;6.954;2023-02-11T09:58:02;34.30;;;21.57;;
817;SDS011;391;51.052;6.954;2023-02-11T10:00:15;32.50;;;20.90;;
817;SDS011;391;51.052;6.954;2023-02-11T10:02:22;31.90;;;20.50;;
817;SDS011;391;51.052;6.954;2023-02-11T10:04:37;31.97;;;20.67;;
817;SDS011;391;51.052;6.954;2023-02-11T10:06:52;35.27;;;23.17;;
817;SDS011;391;51.052;6.954;2023-02-11T10:09:00;33.40;;;21.67;;
817;SDS011;391;51.052;6.954;2023-02-11T10:11:15;36.30;;;21.30;;
817;SDS011;391;51.052;6.954;2023-02-11T10:13:42;37.07;;;21.93;;
817;SDS011;391;51.052;6.954;2023-02-11T10:15:54;33.73;;;23.07;;
817;SDS011;391;51.052;6.954;2023-02-11T10:18:13;31.00;;;21.10;;
817;SDS011;391;51.052;6.954;2023-02-11T10:20:30;27.87;;;20.00;;
817;SDS011;391;51.052;6.954;2023-02-11T10:22:39;32.53;;;22.73;;
817;SDS011;391;51.052;6.954;2023-02-11T10:24:48;32.43;;;21.20;;
817;SDS011;391;51.052;6.954;2023-02-11T10:26:54;32.97;;;22.23;;
817;SDS011;391;51.052;6.954;2023-02-11T10:28:59;35.73;;;22.87;;
817;SDS011;391;51.052;6.954;2023-02-11T10:31:09;33.60;;;22.47;;
817;SDS011;391;51.052;6.954;2023-02-11T10:33:19;37.33;;;23.47;;
817;SDS011;391;51.052;6.954;2023-02-11T10:35:27;33.93;;;21.03;;
817;SDS011;391;51.052;6.954;2023-02-11T10:37:31;32.73;;;21.07;;
817;SDS011;391;51.052;6.954;2023-02-11T10:39:34;31.63;;;23.50;;
817;SDS011;391;51.052;6.954;2023-02-11T10:41:42;27.67;;;19.63;;
817;SDS011;391;51.052;6.954;2023-02-11T10:43:47;33.20;;;21.33;;
817;SDS011;391;51.052;6.954;2023-02-11T10:45:53;34.73;;;22.27;;
817;SDS011;391;51.052;6.954;2023-02-11T10:47:59;33.00;;;21.33;;
817;SDS011;391;51.052;6.954;2023-02-11T10:50:09;36.13;;;22.60;;
817;SDS011;391;51.052;6.954;2023-02-11T10:52:21;34.20;;;21.10;;
817;SDS011;391;51.052;6.954;2023-02-11T10:54:26;35.47;;;22.43;;
817;SDS011;391;51.052;6.954;2023-02-11T10:56:30;38.10;;;22.23;;
817;SDS011;391;51.052;6.954;2023-02-11T10:58:39;31.80;;;20.90;;
817;SDS011;391;51.052;6.954;2023-02-11T11:00:48;36.47;;;23.00;;
817;SDS011;391;51.052;6.954;2023-02-11T11:02:57;36.07;;;21.00;;
817;SDS011;391;51.052;6.954;2023-02-11T11:05:02;34.97;;;22.73;;
817;SDS011;391;51.052;6.954;2023-02-11T11:07:12;34.97;;;23.27;;
817;SDS011;391;51.052;6.954;2023-02-11T11:09:26;31.13;;;22.40;;
817;SDS011;391;51.052;6.954;2023-02-11T11:11:31;36.80;;;24.10;;
817;SDS011;391;51.052;6.954;2023-02-11T11:13:35;33.53;;;22.10;;
817;SDS011;391;51.052;6.954;2023-02-11T11:15:40;42.13;;;25.80;;
817;SDS011;391;51.052;6.954;2023-02-11T11:17:44;36.23;;;21.70;;
817;SDS011;391;51.052;6.954;2023-02-11T11:19:49;33.03;;;20.20;;
817;SDS011;391;51.052;6.954;2023-02-11T11:21:53;37.53;;;23.37;;
817;SDS011;391;51.052;6.954;2023-02-11T11:23:58;37.30;;;24.30;;
817;SDS011;391;51.052;6.954;2023-02-11T11:26:04;35.07;;;24.27;;
817;SDS011;391;51.052;6.954;2023-02-11T11:28:19;33.43;;;22.53;;
817;SDS011;391;51.052;6.954;2023-02-11T11:30:27;31.77;;;21.17;;
817;SDS011;391;51.052;6.954;2023-02-11T11:32:40;32.53;;;22.33;;
817;SDS011;391;51.052;6.954;2023-02-11T11:34:49;32.80;;;23.07;;
817;SDS011;391;51.052;6.954;2023-02-11T11:36:55;33.90;;;22.00;;
817;SDS011;391;51.052;6.954;2023-02-11T11:39:01;40.90;;;25.70;;
817;SDS011;391;51.052;6.954;2023-02-11T11:41:15;32.13;;;22.77;;
817;SDS011;391;51.052;6.954;2023-02-11T11:43:22;35.30;;;24.30;;
817;SDS011;391;51.052;6.954;2023-02-11T11:45:26;36.03;;;23.13;;
817;SDS011;391;51.052;6.954;2023-02-11T11:47:33;30.00;;;22.43;;
817;SDS011;391;51.052;6.954;2023-02-11T11:49:40;34.93;;;23.40;;
817;SDS011;391;51.052;6.954;2023-02-11T11:51:53;39.27;;;24.37;;
817;SDS011;391;51.052;6.954;2023-02-11T11:54:02;34.70;;;22.33;;
817;SDS011;391;51.052;6.954;2023-02-11T11:56:10;33.17;;;23.20;;
817;SDS011;391;51.052;6.954;2023-02-11T11:58:16;41.37;;;24.60;;
817;SDS011;391;51.052;6.954;2023-02-11T12:00:22;36.70;;;24.70;;
817;SDS011;391;51.052;6.954;2023-02-11T12:05:25;33.47;;;23.57;;
817;SDS011;391;51.052;6.954;2023-02-11T12:07:40;36.40;;;22.80;;
817;SDS011;391;51.052;6.954;2023-02-11T12:10:01;37.80;;;23.63;;
817;SDS011;391;51.052;6.954;2023-02-11T12:12:27;37.07;;;23.43;;
817;SDS011;391;51.052;6.954;2023-02-11T12:14:42;36.63;;;22.10;;
817;SDS011;391;51.052;6.954;2023-02-11T12:16:56;40.27;;;24.63;;
817;SDS011;391;51.052;6.954;2023-02-11T12:19:09;32.53;;;23.77;;
817;SDS011;391;51.052;6.954;2023-02-11T12:21:40;38.00;;;24.77;;
817;SDS011;391;51.052;6.954;2023-02-11T12:23:56;37.30;;;24.70;;
817;SDS011;391;51.052;6.954;2023-02-11T12:26:18;42.40;;;25.70;;
817;SDS011;391;51.052;6.954;2023-02-11T12:28:26;38.03;;;25.80;;
817;SDS011;391;51.052;6.954;2023-02-11T12:30:40;36.87;;;24.00;;
817;SDS011;391;51.052;6.954;2023-02-11T12:32:57;38.03;;;23.60;;
817;SDS011;391;51.052;6.954;2023-02-11T12:35:19;33.80;;;23.63;;
817;SDS011;391;51.052;6.954;2023-02-11T12:37:35;39.00;;;27.17;;
817;SDS011;391;51.052;6.954;2023-02-11T12:39:49;37.70;;;25.60;;
817;SDS011;391;51.052;6.954;2023-02-11T12:42:05;33.57;;;23.13;;
817;SDS011;391;51.052;6.954;2023-02-11T12:44:51;34.07;;;24.07;;
817;SDS011;391;51.052;6.954;2023-02-11T12:47:08;44.97;;;25.70;;
817;SDS011;391;51.052;6.954;2023-02-11T12:49:26;35.83;;;23.63;;
817;SDS011;391;51.052;6.954;2023-02-11T12:51:53;36.50;;;24.10;;
817;SDS011;391;51.052;6.954;2023-02-11T12:54:17;34.73;;;24.97;;
817;SDS011;391;51.052;6.954;2023-02-11T12:56:30;43.17;;;25.53;;
817;SDS011;391;51.052;6.954;2023-02-11T12:58:39;38.97;;;24.90;;
817;SDS011;391;51.052;6.954;2023-02-11T13:00:47;36.57;;;26.07;;
817;SDS011;391;51.052;6.954;2023-02-11T13:02:58;38.20;;;24.20;;
817;SDS011;391;51.052;6.954;2023-02-11T13:05:08;37.40;;;25.00;;
817;SDS011;391;51.052;6.954;2023-02-11T13:07:22;37.40;;;25.67;;
817;SDS011;391;51.052;6.954;2023-02-11T13:09:31;43.03;;;25.40;;
817;SDS011;391;51.052;6.954;2023-02-11T13:11:43;41.03;;;27.77;;
817;SDS011;391;51.052;6.954;2023-02-11T13:13:54;38.00;;;24.90;;
817;SDS011;391;51.052;6.954;2023-02-11T13:16:03;37.93;;;25.77;;
817;SDS011;391;51.052;6.954;2023-02-11T13:18:13;41.90;;;24.83;;
817;SDS011;391;51.052;6.954;2023-02-11T13:20:26;46.00;;;28.10;;